createdAt,value
2018-03-08T00:00:51.212Z,17.00
2018-03-08T00:01:51.182Z,18.90
2018-03-08T00:02:51.157Z,18.00
2018-03-08T00:03:51.105Z,18.90
2018-03-08T00:04:51.059Z,19.20
2018-03-08T00:05:51.037Z,19.10
2018-03-08T00:06:50.977Z,19.60
2018-03-08T00:07:50.936Z,17.90
2018-03-08T00:08:50.901Z,17.40
2018-03-08T00:09:50.866Z,17.10
2018-03-08T00:10:50.822Z,17.40
2018-03-08T00:11:50.783Z,17.30
2018-03-08T00:12:50.748Z,15.30
2018-03-08T00:13:50.711Z,16.60
2018-03-08T00:14:50.662Z,16.20
2018-03-08T00:15:50.642Z,17.40
2018-03-08T00:16:50.590Z,16.60
2018-03-08T00:17:50.551Z,16.00
2018-03-08T00:18:50.537Z,15.30
2018-03-08T00:19:50.463Z,14.20
2018-03-08T00:20:50.426Z,14.60
2018-03-08T00:21:50.413Z,14.50
2018-03-08T00:22:50.356Z,14.50
2018-03-08T00:23:50.309Z,12.70
2018-03-08T00:24:50.262Z,13.30
2018-03-08T00:25:50.227Z,13.10
2018-03-08T00:26:50.214Z,12.40
2018-03-08T00:27:50.148Z,12.70
2018-03-08T00:28:50.115Z,13.30
2018-03-08T00:29:50.107Z,12.00
2018-03-08T00:30:50.055Z,12.10
2018-03-08T00:31:50.014Z,11.50
2018-03-08T00:32:49.953Z,12.00
2018-03-08T00:33:49.908Z,12.00
2018-03-08T00:34:49.924Z,12.00
2018-03-08T00:35:49.832Z,11.60
2018-03-08T00:36:49.808Z,11.10
2018-03-08T00:37:49.750Z,10.60
2018-03-08T00:38:49.709Z,11.80
2018-03-08T00:39:49.720Z,12.40
2018-03-08T00:40:49.640Z,11.50
2018-03-08T00:41:49.598Z,12.10
2018-03-08T00:42:49.554Z,11.10
2018-03-08T00:43:49.508Z,11.80
2018-03-08T00:44:49.468Z,12.40
2018-03-08T00:45:49.439Z,11.70
2018-03-08T00:46:49.408Z,12.30
2018-03-08T00:47:49.350Z,12.00
2018-03-08T00:48:49.341Z,11.80
2018-03-08T00:49:49.301Z,12.60
2018-03-08T00:50:49.229Z,12.30
2018-03-08T00:51:49.208Z,11.80
2018-03-08T00:52:49.156Z,12.20
2018-03-08T00:53:49.116Z,12.10
2018-03-08T00:54:49.072Z,11.90
2018-03-08T00:55:49.032Z,12.20
2018-03-08T00:56:49.005Z,11.70
2018-03-08T00:57:48.964Z,12.70
2018-03-08T00:58:48.911Z,11.90
2018-03-08T00:59:48.911Z,12.20
2018-03-08T01:00:48.840Z,11.50
2018-03-08T01:01:48.792Z,12.50
2018-03-08T01:02:48.768Z,11.90
2018-03-08T01:03:48.711Z,12.30
2018-03-08T01:04:48.689Z,11.30
2018-03-08T01:05:48.634Z,11.50
2018-03-08T01:06:48.594Z,11.30
2018-03-08T01:07:48.557Z,10.80
2018-03-08T01:08:48.560Z,11.60
2018-03-08T01:09:48.478Z,11.90
2018-03-08T01:10:48.433Z,10.80
2018-03-08T01:11:48.387Z,10.90
2018-03-08T01:12:48.356Z,11.70
2018-03-08T01:13:48.339Z,11.30
2018-03-08T01:14:48.298Z,10.90
2018-03-08T01:15:48.236Z,9.90
2018-03-08T01:16:48.194Z,10.80
2018-03-08T01:17:48.164Z,11.00
2018-03-08T01:18:48.131Z,10.50
2018-03-08T01:19:48.074Z,10.50
2018-03-08T01:20:48.064Z,10.00
2018-03-08T01:21:48.001Z,9.80
2018-03-08T01:22:47.948Z,8.70
2018-03-08T01:23:47.913Z,9.80
2018-03-08T01:24:47.879Z,8.70
2018-03-08T01:25:47.837Z,8.90
2018-03-08T01:26:47.800Z,8.60
2018-03-08T01:27:47.773Z,8.10
2018-03-08T01:28:47.716Z,8.00
2018-03-08T01:29:47.691Z,8.50
2018-03-08T01:30:47.626Z,8.20
2018-03-08T01:31:47.603Z,8.00
2018-03-08T01:32:47.552Z,7.80
2018-03-08T01:33:47.507Z,7.90
2018-03-08T01:34:47.473Z,7.50
2018-03-08T01:35:47.437Z,8.10
2018-03-08T01:36:47.422Z,7.60
2018-03-08T01:37:47.352Z,7.40
2018-03-08T01:38:47.307Z,7.10
2018-03-08T01:39:47.271Z,7.30
2018-03-08T01:40:47.242Z,7.50
2018-03-08T01:41:47.219Z,7.80
2018-03-08T01:42:47.192Z,8.10
2018-03-08T01:43:47.112Z,7.00
2018-03-08T01:44:47.094Z,7.70
2018-03-08T01:45:47.037Z,6.70
2018-03-08T01:46:46.994Z,7.50
2018-03-08T01:47:46.970Z,6.90
2018-03-08T01:48:46.913Z,7.60
2018-03-08T01:49:46.884Z,6.90
2018-03-08T01:50:46.848Z,7.20
2018-03-08T01:51:46.829Z,6.70
2018-03-08T01:52:46.749Z,6.20
2018-03-08T01:53:46.712Z,6.90
2018-03-08T01:54:46.665Z,5.90
2018-03-08T01:55:46.661Z,7.60
2018-03-08T01:56:46.589Z,6.00
2018-03-08T01:57:46.588Z,6.60
2018-03-08T01:58:46.512Z,7.30
2018-03-08T01:59:46.499Z,6.60
2018-03-08T02:00:46.434Z,6.50
2018-03-08T02:01:46.389Z,7.10
2018-03-08T02:02:46.352Z,6.70
2018-03-08T02:03:46.322Z,6.60
2018-03-08T02:04:46.285Z,6.00
2018-03-08T02:05:46.254Z,6.90
2018-03-08T02:06:46.195Z,6.90
2018-03-08T02:07:46.151Z,6.30
2018-03-08T02:08:46.104Z,6.70
2018-03-08T02:09:46.069Z,6.20
2018-03-08T02:10:46.074Z,6.50
2018-03-08T02:11:45.991Z,6.90
2018-03-08T02:12:45.969Z,6.80
2018-03-08T02:13:45.908Z,6.70
2018-03-08T02:14:45.872Z,6.00
2018-03-08T02:15:45.848Z,6.90
2018-03-08T02:16:45.786Z,7.20
2018-03-08T02:17:45.746Z,6.50
2018-03-08T02:18:45.701Z,6.80
2018-03-08T02:19:45.674Z,6.50
2018-03-08T02:20:45.634Z,7.40
2018-03-08T02:21:45.588Z,6.20
2018-03-08T02:22:45.553Z,6.40
2018-03-08T02:23:45.511Z,6.70
2018-03-08T02:24:45.468Z,6.80
2018-03-08T02:25:45.463Z,7.10
2018-03-08T02:26:45.389Z,7.00
2018-03-08T02:27:45.367Z,6.70
2018-03-08T02:28:45.300Z,6.80
2018-03-08T02:29:45.264Z,7.10
2018-03-08T02:30:45.224Z,6.20
2018-03-08T02:31:45.193Z,5.80
2018-03-08T02:32:45.143Z,6.60
2018-03-08T02:33:45.116Z,6.50
2018-03-08T02:34:45.066Z,5.80
2018-03-08T02:35:45.032Z,7.20
2018-03-08T02:36:45.010Z,7.10
2018-03-08T02:37:44.941Z,6.30
2018-03-08T02:38:44.897Z,6.40
2018-03-08T02:39:44.894Z,6.00
2018-03-08T02:40:44.814Z,6.90
2018-03-08T02:41:44.791Z,5.90
2018-03-08T02:42:44.738Z,6.90
2018-03-08T02:43:44.694Z,6.50
2018-03-08T02:44:44.656Z,7.30
2018-03-08T02:45:44.636Z,5.70
2018-03-08T02:46:44.574Z,6.20
2018-03-08T02:47:44.534Z,6.70
2018-03-08T02:48:44.507Z,7.20
2018-03-08T02:49:44.452Z,6.40
2018-03-08T02:50:44.412Z,6.50
2018-03-08T02:51:44.372Z,6.40
2018-03-08T02:52:44.325Z,5.80
2018-03-08T02:53:45.084Z,6.70
2018-03-08T02:54:44.254Z,6.30
2018-03-08T02:55:44.208Z,6.40
2018-03-08T02:56:45.083Z,6.10
2018-03-08T02:57:44.144Z,6.40
2018-03-08T02:58:44.086Z,6.90
2018-03-08T02:59:44.049Z,6.10
2018-03-08T03:00:44.006Z,6.00
2018-03-08T03:01:43.963Z,6.50
2018-03-08T03:02:43.947Z,6.40
2018-03-08T03:03:43.914Z,6.70
2018-03-08T03:04:43.846Z,6.50
2018-03-08T03:05:43.799Z,7.00
2018-03-08T03:06:43.774Z,6.30
2018-03-08T03:07:43.730Z,6.00
2018-03-08T03:08:43.677Z,5.80
2018-03-08T03:09:43.642Z,6.50
2018-03-08T03:10:43.601Z,6.30
2018-03-08T03:11:43.609Z,6.00
2018-03-08T03:12:43.518Z,6.50
2018-03-08T03:13:43.480Z,5.30
2018-03-08T03:14:43.438Z,5.70
2018-03-08T03:15:43.393Z,5.60
2018-03-08T03:16:43.357Z,5.90
2018-03-08T03:17:43.345Z,5.40
2018-03-08T03:18:43.277Z,5.70
2018-03-08T03:19:43.233Z,5.20
2018-03-08T03:20:43.193Z,6.10
2018-03-08T03:21:43.166Z,5.20
2018-03-08T03:22:43.109Z,5.50
2018-03-08T03:23:43.070Z,6.20
2018-03-08T03:24:43.034Z,5.10
2018-03-08T03:25:43.001Z,5.50
2018-03-08T03:26:42.983Z,5.60
2018-03-08T03:27:42.916Z,5.60
2018-03-08T03:28:42.927Z,5.70
2018-03-08T03:29:42.823Z,6.40
2018-03-08T03:30:42.789Z,5.20
2018-03-08T03:31:42.767Z,6.10
2018-03-08T03:32:42.718Z,4.90
2018-03-08T03:33:42.670Z,5.50
2018-03-08T03:34:42.638Z,5.10
2018-03-08T03:35:42.595Z,5.80
2018-03-08T03:36:42.547Z,6.20
2018-03-08T03:37:42.504Z,5.60
2018-03-08T03:38:42.464Z,5.20
2018-03-08T03:39:42.418Z,5.20
2018-03-08T03:40:42.390Z,4.40
2018-03-08T03:41:42.349Z,5.10
2018-03-08T03:42:42.299Z,5.10
2018-03-08T03:43:42.261Z,5.20
2018-03-08T03:44:42.260Z,4.20
2018-03-08T03:45:42.222Z,4.90
2018-03-08T03:46:42.137Z,4.70
2018-03-08T03:47:42.097Z,4.90
2018-03-08T03:48:42.061Z,4.60
2018-03-08T03:49:42.014Z,5.10
2018-03-08T03:50:41.974Z,5.40
2018-03-08T03:51:41.946Z,4.60
2018-03-08T03:52:41.904Z,4.80
2018-03-08T03:53:41.874Z,4.10
2018-03-08T03:54:41.823Z,5.20
2018-03-08T03:55:41.794Z,4.60
2018-03-08T03:56:41.732Z,4.90
2018-03-08T03:57:41.697Z,4.80
2018-03-08T03:58:41.647Z,5.00
2018-03-08T03:59:41.644Z,5.40
2018-03-08T04:00:41.572Z,4.70
2018-03-08T04:01:41.523Z,5.00
2018-03-08T04:02:41.485Z,4.30
2018-03-08T04:03:41.453Z,4.90
2018-03-08T04:04:41.420Z,4.70
2018-03-08T04:05:41.367Z,4.90
2018-03-08T04:06:41.321Z,4.50
2018-03-08T04:07:41.298Z,5.00
2018-03-08T04:08:41.239Z,5.10
2018-03-08T04:09:41.201Z,5.70
2018-03-08T04:10:41.154Z,6.00
2018-03-08T04:11:41.116Z,5.30
2018-03-08T04:12:41.077Z,5.90
2018-03-08T04:13:41.040Z,5.40
2018-03-08T04:14:40.997Z,6.10
2018-03-08T04:15:41.020Z,5.00
2018-03-08T04:16:40.937Z,5.70
2018-03-08T04:17:40.888Z,5.40
2018-03-08T04:18:40.851Z,6.20
2018-03-08T04:19:40.785Z,6.10
2018-03-08T04:20:40.787Z,6.10
2018-03-08T04:21:40.709Z,6.10
2018-03-08T04:22:40.699Z,5.80
2018-03-08T04:23:40.623Z,5.80
2018-03-08T04:24:40.607Z,5.80
2018-03-08T04:25:40.541Z,6.40
2018-03-08T04:26:40.523Z,5.90
2018-03-08T04:27:40.476Z,6.00
2018-03-08T04:28:40.487Z,6.00
2018-03-08T04:29:40.412Z,5.80
2018-03-08T04:30:40.329Z,6.30
2018-03-08T04:31:40.305Z,6.30
2018-03-08T04:32:40.263Z,6.50
2018-03-08T04:33:40.223Z,6.80
2018-03-08T04:34:40.174Z,5.80
2018-03-08T04:35:40.140Z,5.60
2018-03-08T04:36:40.108Z,5.90
2018-03-08T04:37:40.043Z,5.80
2018-03-08T04:38:40.006Z,6.00
2018-03-08T04:39:39.974Z,5.90
2018-03-08T04:40:39.924Z,5.90
2018-03-08T04:41:39.885Z,6.00
2018-03-08T04:42:39.845Z,5.50
2018-03-08T04:43:39.791Z,6.00
2018-03-08T04:44:39.757Z,5.90
2018-03-08T04:45:39.749Z,5.70
2018-03-08T04:46:39.691Z,5.10
2018-03-08T04:47:39.627Z,5.30
2018-03-08T04:48:39.615Z,5.60
2018-03-08T04:49:39.559Z,6.70
2018-03-08T04:50:39.510Z,6.40
2018-03-08T04:51:39.466Z,6.10
2018-03-08T04:52:39.463Z,5.50
2018-03-08T04:53:39.399Z,5.60
2018-03-08T04:54:39.344Z,5.60
2018-03-08T04:55:39.316Z,5.80
2018-03-08T04:56:39.271Z,6.10
2018-03-08T04:57:39.227Z,6.00
2018-03-08T04:58:39.174Z,6.00
2018-03-08T04:59:39.135Z,6.30
2018-03-08T05:00:39.111Z,5.50
2018-03-08T05:01:39.058Z,6.90
2018-03-08T05:02:39.016Z,6.50
2018-03-08T05:03:38.978Z,6.40
2018-03-08T05:04:38.926Z,6.30
2018-03-08T05:05:38.898Z,5.90
2018-03-08T05:06:38.880Z,6.50
2018-03-08T05:07:38.801Z,6.20
2018-03-08T05:08:38.762Z,6.70
2018-03-08T05:09:38.741Z,6.70
2018-03-08T05:10:38.677Z,6.00
2018-03-08T05:11:38.641Z,6.20
2018-03-08T05:12:38.603Z,6.60
2018-03-08T05:13:38.570Z,6.20
2018-03-08T05:14:38.514Z,6.40
2018-03-08T05:15:38.471Z,6.50
2018-03-08T05:16:38.441Z,6.90
2018-03-08T05:17:38.403Z,6.40
2018-03-08T05:18:38.343Z,7.00
2018-03-08T05:19:38.302Z,6.90
2018-03-08T05:20:38.291Z,7.50
2018-03-08T05:21:38.222Z,7.40
2018-03-08T05:22:38.179Z,7.40
2018-03-08T05:23:38.144Z,7.90
2018-03-08T05:24:38.093Z,7.20
2018-03-08T05:25:38.078Z,7.40
2018-03-08T05:26:38.013Z,7.00
2018-03-08T05:27:37.972Z,7.60
2018-03-08T05:28:37.933Z,8.20
2018-03-08T05:29:37.901Z,8.00
2018-03-08T05:30:37.849Z,7.50
2018-03-08T05:31:37.802Z,9.00
2018-03-08T05:32:37.765Z,8.60
2018-03-08T05:33:37.719Z,9.90
2018-03-08T05:34:37.673Z,9.70
2018-03-08T05:35:37.654Z,10.70
2018-03-08T05:36:37.608Z,9.90
2018-03-08T05:37:37.562Z,10.60
2018-03-08T05:38:37.534Z,10.10
2018-03-08T05:39:37.485Z,10.70
2018-03-08T05:40:37.428Z,11.70
2018-03-08T05:41:37.393Z,12.10
2018-03-08T05:42:37.346Z,10.30
2018-03-08T05:43:37.300Z,12.00
2018-03-08T05:44:37.268Z,12.40
2018-03-08T05:45:37.222Z,13.60
2018-03-08T05:46:37.184Z,13.30
2018-03-08T05:47:37.133Z,13.40
2018-03-08T05:48:37.141Z,14.40
2018-03-08T05:49:37.067Z,14.90
2018-03-08T05:50:37.017Z,13.10
2018-03-08T05:51:36.972Z,14.10
2018-03-08T05:52:36.960Z,13.10
2018-03-08T05:53:36.930Z,12.50
2018-03-08T05:54:36.879Z,14.00
2018-03-08T05:55:36.803Z,13.10
2018-03-08T05:56:36.782Z,13.30
2018-03-08T05:57:36.731Z,14.10
2018-03-08T05:58:36.685Z,13.50
2018-03-08T05:59:36.646Z,14.60
2018-03-08T06:00:36.601Z,14.30
2018-03-08T06:01:36.562Z,13.50
2018-03-08T06:02:36.527Z,13.40
2018-03-08T06:03:36.479Z,13.70
2018-03-08T06:04:36.438Z,13.90
2018-03-08T06:05:36.395Z,12.90
2018-03-08T06:06:36.356Z,15.00
2018-03-08T06:07:36.320Z,15.40
2018-03-08T06:08:36.274Z,14.40
2018-03-08T06:09:36.233Z,14.50
2018-03-08T06:10:36.190Z,15.00
2018-03-08T06:11:36.151Z,13.80
2018-03-08T06:12:36.626Z,14.70
2018-03-08T06:13:36.073Z,14.50
2018-03-08T06:14:36.029Z,14.40
2018-03-08T06:15:35.986Z,14.70
2018-03-08T06:16:35.946Z,14.30
2018-03-08T06:17:35.907Z,14.70
2018-03-08T06:18:35.866Z,15.50
2018-03-08T06:19:35.828Z,14.30
2018-03-08T06:20:35.804Z,15.20
2018-03-08T06:21:35.739Z,15.30
2018-03-08T06:22:35.696Z,16.10
2018-03-08T06:23:35.659Z,14.70
2018-03-08T06:24:35.632Z,15.50
2018-03-08T06:25:35.576Z,15.10
2018-03-08T06:26:35.535Z,15.40
2018-03-08T06:27:35.493Z,15.30
2018-03-08T06:28:35.454Z,15.70
2018-03-08T06:29:35.414Z,14.70
2018-03-08T06:30:35.371Z,14.10
2018-03-08T06:31:35.332Z,15.00
2018-03-08T06:32:35.291Z,15.90
2018-03-08T06:33:35.250Z,15.40
2018-03-08T06:34:35.208Z,14.80
2018-03-08T06:35:35.165Z,13.80
2018-03-08T06:36:35.126Z,14.90
2018-03-08T06:37:35.084Z,14.40
2018-03-08T06:38:35.047Z,13.90
2018-03-08T06:39:35.005Z,13.70
2018-03-08T06:40:34.963Z,14.10
2018-03-08T06:41:34.922Z,13.50
2018-03-08T06:42:34.886Z,14.40
2018-03-08T06:43:34.844Z,13.40
2018-03-08T06:44:34.803Z,13.90
2018-03-08T06:45:34.763Z,13.60
2018-03-08T06:46:34.722Z,13.60
2018-03-08T06:47:34.678Z,13.10
2018-03-08T06:48:34.649Z,13.10
2018-03-08T06:49:34.601Z,13.40
2018-03-08T06:50:34.564Z,12.90
2018-03-08T06:51:34.522Z,13.00
2018-03-08T06:52:34.484Z,12.10
2018-03-08T06:53:34.438Z,12.00
2018-03-08T06:54:34.444Z,11.50
2018-03-08T06:55:34.363Z,12.90
2018-03-08T06:56:34.324Z,12.50
2018-03-08T06:57:34.537Z,12.00
2018-03-08T06:58:34.245Z,12.90
2018-03-08T06:59:34.204Z,12.70
2018-03-08T07:00:34.163Z,11.40
2018-03-08T07:01:34.126Z,12.00
2018-03-08T07:02:34.087Z,11.20
2018-03-08T07:03:34.048Z,11.50
2018-03-08T07:04:34.011Z,12.00
2018-03-08T07:05:33.969Z,11.50
2018-03-08T07:06:33.930Z,11.10
2018-03-08T07:07:33.892Z,11.10
2018-03-08T07:08:33.888Z,10.50
2018-03-08T07:09:33.810Z,10.00
2018-03-08T07:10:33.797Z,11.00
2018-03-08T07:11:33.749Z,11.00
2018-03-08T07:12:33.742Z,11.20
2018-03-08T07:13:33.658Z,11.70
2018-03-08T07:14:33.617Z,11.00
2018-03-08T07:15:33.578Z,10.60
2018-03-08T07:16:33.540Z,10.80
2018-03-08T07:17:33.500Z,11.00
2018-03-08T07:18:33.460Z,10.80
2018-03-08T07:19:33.420Z,10.20
2018-03-08T07:20:33.386Z,10.90
2018-03-08T07:21:33.346Z,10.60
2018-03-08T07:22:33.308Z,9.70
2018-03-08T07:23:33.269Z,9.60
2018-03-08T07:24:33.231Z,9.20
2018-03-08T07:25:33.195Z,9.90
2018-03-08T07:26:33.156Z,9.40
2018-03-08T07:27:33.120Z,9.30
2018-03-08T07:28:33.084Z,8.90
2018-03-08T07:29:33.046Z,9.20
2018-03-08T07:30:33.007Z,8.80
2018-03-08T07:31:32.975Z,9.50
2018-03-08T07:32:32.937Z,8.90
2018-03-08T07:33:32.912Z,9.30
2018-03-08T07:34:32.862Z,8.60
2018-03-08T07:35:32.830Z,8.70
2018-03-08T07:36:32.793Z,8.00
2018-03-08T07:37:32.758Z,8.20
2018-03-08T07:38:32.723Z,7.80
2018-03-08T07:39:32.689Z,8.10
2018-03-08T07:40:32.652Z,8.70
2018-03-08T07:41:32.619Z,7.50
2018-03-08T07:42:32.582Z,7.00
2018-03-08T07:43:32.552Z,8.50
2018-03-08T07:44:32.514Z,7.70
2018-03-08T07:45:32.480Z,7.90
2018-03-08T07:46:32.451Z,8.00
2018-03-08T07:47:32.411Z,8.20
2018-03-08T07:48:32.376Z,7.50
2018-03-08T07:49:32.346Z,7.50
2018-03-08T07:50:32.310Z,7.60
2018-03-08T07:51:32.279Z,7.60
2018-03-08T07:52:32.245Z,8.30
2018-03-08T07:53:32.216Z,8.50
2018-03-08T07:54:32.178Z,8.10
2018-03-08T07:55:32.146Z,7.50
2018-03-08T07:56:32.114Z,8.00
2018-03-08T07:57:32.082Z,8.00
2018-03-08T07:58:32.044Z,7.40
2018-03-08T07:59:32.012Z,7.90
2018-03-08T08:00:31.976Z,8.30
2018-03-08T08:01:31.945Z,8.90
2018-03-08T08:02:31.909Z,8.10
2018-03-08T08:03:31.877Z,8.60
2018-03-08T08:04:31.838Z,8.30
2018-03-08T08:05:31.804Z,7.80
2018-03-08T08:06:31.770Z,8.10
2018-03-08T08:07:31.735Z,8.90
2018-03-08T08:08:31.701Z,8.40
2018-03-08T08:09:31.661Z,8.10
2018-03-08T08:10:31.640Z,8.60
2018-03-08T08:11:31.591Z,8.70
2018-03-08T08:12:31.553Z,8.20
2018-03-08T08:13:31.518Z,8.50
2018-03-08T08:14:31.481Z,8.10
2018-03-08T08:15:31.445Z,8.60
2018-03-08T08:16:31.408Z,8.30
2018-03-08T08:17:31.370Z,8.40
2018-03-08T08:18:31.334Z,8.70
2018-03-08T08:19:31.297Z,8.50
2018-03-08T08:20:31.254Z,9.20
2018-03-08T08:21:31.223Z,8.50
2018-03-08T08:22:31.183Z,8.20
2018-03-08T08:23:31.145Z,8.30
2018-03-08T08:24:31.106Z,8.60
2018-03-08T08:25:31.071Z,9.50
2018-03-08T08:26:31.032Z,8.60
2018-03-08T08:27:30.994Z,8.30
2018-03-08T08:28:30.956Z,7.60
2018-03-08T08:29:30.919Z,8.30
2018-03-08T08:30:30.880Z,8.00
2018-03-08T08:31:30.842Z,7.50
2018-03-08T08:32:30.803Z,7.00
2018-03-08T08:33:30.766Z,7.90
2018-03-08T08:34:30.739Z,7.50
2018-03-08T08:35:30.693Z,7.50
2018-03-08T08:36:30.652Z,7.30
2018-03-08T08:37:30.616Z,7.20
2018-03-08T08:38:30.576Z,7.20
2018-03-08T08:39:30.539Z,7.10
2018-03-08T08:40:30.534Z,7.30
2018-03-08T08:41:30.460Z,6.40
2018-03-08T08:42:30.425Z,6.40
2018-03-08T08:43:30.386Z,6.90
2018-03-08T08:44:30.351Z,5.70
2018-03-08T08:45:30.309Z,6.90
2018-03-08T08:46:30.276Z,6.40
2018-03-08T08:47:30.236Z,6.50
2018-03-08T08:48:30.202Z,7.40
2018-03-08T08:49:30.159Z,6.40
2018-03-08T08:50:30.118Z,6.50
2018-03-08T08:51:30.084Z,6.80
2018-03-08T08:52:30.049Z,7.00
2018-03-08T08:53:30.010Z,6.30
2018-03-08T08:54:29.990Z,6.20
2018-03-08T08:55:29.940Z,7.00
2018-03-08T08:56:29.896Z,6.70
2018-03-08T08:57:29.858Z,6.30
2018-03-08T08:58:29.819Z,6.10
2018-03-08T08:59:29.784Z,6.20
2018-03-08T09:00:29.745Z,6.30
2018-03-08T09:01:29.706Z,5.80
2018-03-08T09:02:29.667Z,7.10
2018-03-08T09:03:29.633Z,6.30
2018-03-08T09:04:29.595Z,6.30
2018-03-08T09:05:29.565Z,5.20
2018-03-08T09:06:29.519Z,5.90
2018-03-08T09:07:29.496Z,5.50
2018-03-08T09:08:29.444Z,5.50
2018-03-08T09:09:29.410Z,5.20
2018-03-08T09:10:29.371Z,4.70
2018-03-08T09:11:29.333Z,5.00
2018-03-08T09:12:29.297Z,4.60
2018-03-08T09:13:29.262Z,4.90
2018-03-08T09:14:29.222Z,4.60
2018-03-08T09:15:29.200Z,5.50
2018-03-08T09:16:29.151Z,4.50
2018-03-08T09:17:29.112Z,4.20
2018-03-08T09:18:29.072Z,3.90
2018-03-08T09:19:29.037Z,4.10
2018-03-08T09:20:29.002Z,4.00
2018-03-08T09:21:28.966Z,4.20
2018-03-08T09:22:28.975Z,4.80
2018-03-08T09:23:28.890Z,4.50
2018-03-08T09:24:28.857Z,4.80
2018-03-08T09:25:28.820Z,4.70
2018-03-08T09:26:28.784Z,4.20
2018-03-08T09:27:28.779Z,3.20
2018-03-08T09:28:28.711Z,4.10
2018-03-08T09:29:28.675Z,4.20
2018-03-08T09:30:28.639Z,4.10
2018-03-08T09:31:28.603Z,3.90
2018-03-08T09:32:28.565Z,4.10
2018-03-08T09:33:28.529Z,3.30
2018-03-08T09:34:28.495Z,3.10
2018-03-08T09:35:28.458Z,2.90
2018-03-08T09:36:28.422Z,2.90
2018-03-08T09:37:28.388Z,2.60
2018-03-08T09:38:28.350Z,2.80
2018-03-08T09:39:28.312Z,3.20
2018-03-08T09:40:28.278Z,2.50
2018-03-08T09:41:28.246Z,2.70
2018-03-08T09:42:28.206Z,2.70
2018-03-08T09:43:28.171Z,2.70
2018-03-08T09:44:28.134Z,2.70
2018-03-08T09:45:28.098Z,2.70
2018-03-08T09:46:28.065Z,2.50
2018-03-08T09:47:28.026Z,2.70
2018-03-08T09:48:27.998Z,2.60
2018-03-08T09:49:27.954Z,2.20
2018-03-08T09:50:27.918Z,2.40
2018-03-08T09:51:27.881Z,2.70
2018-03-08T09:52:27.848Z,2.50
2018-03-08T09:53:27.810Z,2.30
2018-03-08T09:54:27.773Z,2.50
2018-03-08T09:55:27.741Z,2.40
2018-03-08T09:56:27.702Z,2.00
2018-03-08T09:57:27.666Z,2.20
2018-03-08T09:58:27.630Z,2.20
2018-03-08T09:59:27.603Z,1.90
2018-03-08T10:00:27.560Z,2.10
2018-03-08T10:01:27.525Z,1.90
2018-03-08T10:02:27.484Z,2.30
2018-03-08T10:03:27.453Z,2.60
2018-03-08T10:04:27.417Z,2.10
2018-03-08T10:05:27.378Z,2.50
2018-03-08T10:06:27.343Z,2.10
2018-03-08T10:07:27.310Z,2.30
2018-03-08T10:08:27.277Z,2.30
2018-03-08T10:09:27.278Z,2.10
2018-03-08T10:10:27.202Z,2.80
2018-03-08T10:11:27.168Z,2.50
2018-03-08T10:12:27.130Z,2.40
2018-03-08T10:13:27.097Z,2.10
2018-03-08T10:14:27.063Z,2.10
2018-03-08T10:15:27.027Z,2.40
2018-03-08T10:16:26.994Z,2.60
2018-03-08T10:17:26.960Z,2.90
2018-03-08T10:18:26.923Z,2.60
2018-03-08T10:19:26.890Z,2.30
2018-03-08T10:20:26.856Z,2.60
2018-03-08T10:21:44.375Z,2.10
2018-03-08T10:22:26.791Z,2.50
2018-03-08T10:23:26.756Z,2.60
2018-03-08T10:24:26.728Z,2.90
2018-03-08T10:25:26.694Z,2.30
2018-03-08T10:26:26.658Z,3.10
2018-03-08T10:27:26.628Z,2.60
2018-03-08T10:28:26.594Z,2.60
2018-03-08T10:29:26.561Z,2.60
2018-03-08T10:30:26.530Z,2.50
2018-03-08T10:31:26.503Z,2.30
2018-03-08T10:32:26.466Z,2.80
2018-03-08T10:33:26.437Z,2.40
2018-03-08T10:34:26.404Z,2.50
2018-03-08T10:35:26.378Z,2.50
2018-03-08T10:36:26.344Z,2.30
2018-03-08T10:37:26.316Z,2.70
2018-03-08T10:38:26.305Z,2.70
2018-03-08T10:43:26.215Z,2.60
2018-03-08T10:44:26.112Z,2.90
2018-03-08T10:45:26.078Z,3.10
2018-03-08T10:46:26.063Z,2.90
2018-03-08T10:47:26.019Z,2.20
2018-03-08T10:48:26.017Z,3.10
2018-03-08T10:49:25.966Z,2.90
2018-03-08T10:50:25.945Z,2.20
2018-03-08T10:51:25.896Z,2.30
2018-03-08T10:52:25.864Z,2.10
2018-03-08T10:53:25.833Z,2.40
2018-03-08T10:54:25.799Z,2.00
2018-03-08T10:55:25.769Z,2.20
2018-03-08T10:56:25.738Z,2.70
2018-03-08T10:57:25.702Z,2.10
2018-03-08T10:58:25.673Z,2.10
2018-03-08T10:59:25.639Z,1.80
2018-03-08T11:00:25.611Z,1.80
2018-03-08T11:01:25.576Z,2.00
2018-03-08T11:02:25.544Z,2.30
2018-03-08T11:03:25.511Z,2.10
2018-03-08T11:04:26.549Z,2.20
2018-03-08T11:05:25.450Z,2.30
2018-03-08T11:06:25.447Z,1.80
2018-03-08T11:07:25.387Z,1.80
2018-03-08T11:08:25.359Z,1.90
2018-03-08T11:09:25.323Z,1.60
2018-03-08T11:10:25.292Z,1.90
2018-03-08T11:11:25.264Z,1.70
2018-03-08T11:12:25.231Z,2.10
2018-03-08T11:13:25.196Z,1.50
2018-03-08T11:14:25.163Z,1.50
2018-03-08T11:15:25.131Z,1.50
2018-03-08T11:16:25.124Z,1.30
2018-03-08T11:17:25.067Z,1.80
2018-03-08T11:18:25.037Z,1.40
2018-03-08T11:19:25.018Z,1.80
2018-03-08T11:20:24.969Z,1.80
2018-03-08T11:21:24.940Z,1.60
2018-03-08T11:22:24.901Z,1.20
2018-03-08T11:23:24.871Z,1.70
2018-03-08T11:24:24.839Z,1.40
2018-03-08T11:25:24.805Z,1.50
2018-03-08T11:26:24.773Z,1.30
2018-03-08T11:27:24.738Z,1.40
2018-03-08T11:28:24.706Z,1.50
2018-03-08T11:29:24.696Z,2.10
2018-03-08T11:30:24.671Z,1.60
2018-03-08T11:31:24.603Z,1.60
2018-03-08T11:32:24.570Z,1.80
2018-03-08T11:33:24.539Z,1.70
2018-03-08T11:34:24.505Z,1.50
2018-03-08T11:35:24.470Z,1.40
2018-03-08T11:36:24.433Z,1.60
2018-03-08T11:37:24.399Z,1.90
2018-03-08T11:38:24.364Z,1.60
2018-03-08T11:39:24.331Z,1.80
2018-03-08T11:40:24.297Z,2.10
2018-03-08T11:41:24.264Z,1.60
2018-03-08T11:42:24.227Z,1.50
2018-03-08T11:43:24.229Z,1.60
2018-03-08T11:44:24.160Z,1.60
2018-03-08T11:45:24.123Z,1.50
2018-03-08T11:46:24.092Z,1.90
2018-03-08T11:47:24.741Z,1.50
2018-03-08T11:48:24.022Z,1.60
2018-03-08T11:49:23.987Z,1.60
2018-03-08T11:50:23.953Z,1.80
2018-03-08T11:51:24.218Z,1.70
2018-03-08T11:52:23.883Z,1.30
2018-03-08T11:53:23.847Z,1.50
2018-03-08T11:54:23.810Z,1.70
2018-03-08T11:55:23.780Z,2.20
2018-03-08T11:56:23.746Z,2.10
2018-03-08T11:57:23.720Z,1.50
2018-03-08T11:58:23.673Z,1.50
2018-03-08T11:59:23.636Z,1.70
2018-03-08T12:00:23.604Z,1.50
2018-03-08T12:01:23.571Z,1.20
2018-03-08T12:02:23.533Z,1.20
2018-03-08T12:03:23.498Z,1.10
2018-03-08T12:04:23.465Z,1.10
2018-03-08T12:05:23.430Z,1.60
2018-03-08T12:06:23.398Z,1.50
2018-03-08T12:07:23.360Z,1.30
2018-03-08T12:08:23.325Z,1.10
2018-03-08T12:09:23.291Z,1.10
2018-03-08T12:10:23.257Z,1.90
2018-03-08T12:11:23.219Z,1.10
2018-03-08T12:12:23.185Z,1.60
2018-03-08T12:13:23.563Z,1.30
2018-03-08T12:14:23.115Z,1.20
2018-03-08T12:15:23.081Z,1.80
2018-03-08T12:16:23.044Z,2.00
2018-03-08T12:17:23.009Z,1.70
2018-03-08T12:18:22.975Z,1.80
2018-03-08T12:19:22.938Z,1.60
2018-03-08T12:20:22.904Z,1.30
2018-03-08T12:21:22.869Z,1.70
2018-03-08T12:22:22.833Z,1.60
2018-03-08T12:23:22.797Z,1.70
2018-03-08T12:24:22.760Z,1.70
2018-03-08T12:25:22.730Z,1.90
2018-03-08T12:26:22.685Z,1.50
2018-03-08T12:27:22.653Z,1.30
2018-03-08T12:28:22.618Z,1.70
2018-03-08T12:29:22.584Z,1.90
2018-03-08T12:30:22.544Z,1.90
2018-03-08T12:31:22.789Z,1.90
2018-03-08T12:32:22.476Z,1.60
2018-03-08T12:33:22.452Z,1.50
2018-03-08T12:34:22.406Z,1.60
2018-03-08T12:35:22.366Z,1.40
2018-03-08T12:36:22.332Z,1.20
2018-03-08T12:37:22.295Z,1.40
2018-03-08T12:38:22.260Z,1.50
2018-03-08T12:39:22.224Z,1.50
2018-03-08T12:40:22.187Z,1.90
2018-03-08T12:41:22.149Z,2.20
2018-03-08T12:42:22.115Z,1.70
2018-03-08T12:43:22.077Z,1.60
2018-03-08T12:44:22.043Z,1.30
2018-03-08T12:45:22.004Z,1.30
2018-03-08T12:46:21.967Z,1.80
2018-03-08T12:47:21.935Z,1.60
2018-03-08T12:48:21.897Z,1.50
2018-03-08T12:49:22.285Z,1.80
2018-03-08T12:50:21.825Z,1.60
2018-03-08T12:51:21.793Z,1.50
2018-03-08T12:52:21.750Z,1.50
2018-03-08T12:53:21.715Z,1.70
2018-03-08T12:54:21.680Z,1.60
2018-03-08T12:55:21.640Z,1.50
2018-03-08T12:56:21.604Z,1.90
2018-03-08T12:57:21.568Z,1.70
2018-03-08T12:58:21.533Z,1.50
2018-03-08T12:59:21.494Z,1.80
2018-03-08T13:00:21.459Z,1.90
2018-03-08T13:01:21.423Z,1.70
2018-03-08T13:02:21.387Z,1.80
2018-03-08T13:03:21.347Z,1.90
2018-03-08T13:04:21.330Z,1.90
2018-03-08T13:05:21.276Z,1.60
2018-03-08T13:06:21.239Z,1.80
2018-03-08T13:07:21.203Z,2.30
2018-03-08T13:08:21.168Z,1.90
2018-03-08T13:09:21.132Z,1.90
2018-03-08T13:10:21.092Z,1.80
2018-03-08T13:11:21.057Z,1.90
2018-03-08T13:12:21.067Z,2.30
2018-03-08T13:13:20.983Z,1.70
2018-03-08T13:14:20.945Z,2.00
2018-03-08T13:15:20.910Z,2.10
2018-03-08T13:16:20.872Z,2.00